Aktuální počasí v Česku a ve světě - METAR

Seznam meteostanic umístěných nejčasteji na letišti v ČR a ve světě

Vyhledat místa podle abecedy:
A B C D E F G H I J K L M N O P Q R S T U V W X Y Z

Filtrovat:

ID stanice:
a/nebo
Název místa (fulltext):
 
Místo (ID)Naposledy načteno 
Brno - Tuřany (Brno/Tu) 27.02.2021 03:00 UTC Zobrazit data
Místo: Brno - Tuřany
Teplota: 4 °C (pocitová: -4.1 °C)
Vítr: 6 m/s z(e) 330°
Počasí: skoro zataženo
Dohlednost: 35 km
Zákl. oblačnosti: 5/8 1440 m;6/8 5100 m
Vlhkost: 81%
Červená - Opava (Cervena/uL) 27.02.2021 03:00 UTC Zobrazit data
Místo: Červená - Opava
Teplota: 1 °C (pocitová: -7.8 °C)
Vítr: 5 m/s z(e) 350°
Počasí: zataženo
Dohlednost: 19 km
Zákl. oblačnosti: 8/8 420 m
Vlhkost: 93%
České Budějovice (C.Budej/po) 27.02.2021 03:00 UTC Zobrazit data
Místo: České Budějovice
Teplota: 2 °C (pocitová: -1.8 °C)
Vítr: 1 m/s z(e) 360°
Počasí: oblačno
Dohlednost: 17 km
Zákl. oblačnosti: 1/8 630 m;3/8 1380 m
Vlhkost: 93%
Cheb (Cheb) 27.02.2021 03:00 UTC Zobrazit data
Místo: Cheb
Teplota: 2 °C (pocitová: -3.3 °C)
Vítr: 2 m/s z(e) 330°
Počasí: zataženo
Dohlednost: 17 km
Zákl. oblačnosti: 5/8 540 m;6/8 1350 m
Vlhkost: 87%
Chotusice - Čáslav (Caslav) 27.02.2021 03:00 UTC Zobrazit data
Místo: Chotusice - Čáslav
Teplota: 3 °C (pocitová: -4.3 °C)
Vítr: 4 m/s z(e) 300°
Počasí: skoro zataženo
Dohlednost: 10 km
Zákl. oblačnosti: 6/8 540 m
Vlhkost: 93%
Churáňov (Churanov) 27.02.2021 03:00 UTC Zobrazit data
Místo: Churáňov
Teplota: -2 °C (pocitová: -8.5 °C)
Vítr: 2 m/s z(e) 350°
Počasí: zataženo
Dohlednost: 1600 m
Zákl. oblačnosti: 6/8 30 m;7/8 690 m
Vlhkost: 100%
Doksany - Litoměřice (Doksany) 27.02.2021 03:00 UTC Zobrazit data
Místo: Doksany - Litoměřice
Teplota: 3 °C (pocitová: -2.1 °C)
Vítr: 2 m/s z(e) 0°
Počasí: skoro zataženo
Dohlednost: 14 km
Zákl. oblačnosti: 7/8 690 m
Vlhkost: 93%
Dukovany (Dukovany) 27.02.2021 03:00 UTC Zobrazit data
Místo: Dukovany
Teplota: 3 °C (pocitová: -4.3 °C)
Vítr: 4 m/s z(e) 340°
Počasí: skoro zataženo
Dohlednost: 18 km
Zákl. oblačnosti: 5/8 390 m
Vlhkost: 87%
Holešov (Holesov) 27.02.2021 03:00 UTC Zobrazit data
Místo: Holešov
Teplota: 2 °C (pocitová: -1.8 °C)
Vítr: 1 m/s z(e) 350°
Počasí: skoro zataženo
Dohlednost: 35 km
Zákl. oblačnosti: 7/8 900 m
Vlhkost: 93%
Kadaň - Tušimice (Tusimice) 27.02.2021 03:00 UTC Zobrazit data
Místo: Kadaň - Tušimice
Teplota: 4 °C (pocitová: -3.6 °C)
Vítr: 5 m/s z(e) 320°
Počasí:
Dohlednost: 35 km
Zákl. oblačnosti: N/A
Vlhkost: 75%
Karlovy Vary (K.Vary) 27.02.2021 03:00 UTC Zobrazit data
Místo: Karlovy Vary
Teplota: 1 °C (pocitová: -6 °C)
Vítr: 3 m/s z(e) 340°
Počasí: skoro zataženo
Dohlednost: 12 km
Zákl. oblačnosti: 6/8 690 m
Vlhkost: 93%
Kocelovice (Kocelovice) 27.02.2021 03:00 UTC Zobrazit data
Místo: Kocelovice
Teplota: 1 °C (pocitová: -6 °C)
Vítr: 3 m/s z(e) 320°
Počasí: zataženo
Dohlednost: 7 km
Zákl. oblačnosti: 7/8 1260 m
Vlhkost: 93%
Kopisty (Kopisty) 26.02.2021 21:00 UTC Zobrazit data
Místo: Kopisty
Teplota: 4 °C (pocitová: -0.8 °C)
Vítr: 2 m/s z(e) 270°
Počasí: skoro zataženo
Dohlednost: 35 km
Zákl. oblačnosti: 4/8 690 m;3/8 3900 m
Vlhkost: 87%
Kostelní Myslová (K.Myslova) 27.02.2021 03:00 UTC Zobrazit data
Místo: Kostelní Myslová
Teplota: 1 °C (pocitová: -4.6 °C)
Vítr: 2 m/s z(e) 0°
Počasí: zataženo
Dohlednost: 9 km
Zákl. oblačnosti: 6/8 270 m;7/8 4800 m
Vlhkost: 93%
Křešín - Kramolín (Kramolin) 27.02.2021 03:00 UTC Zobrazit data
Místo: Křešín - Kramolín
Teplota: 1 °C (pocitová: -6 °C)
Vítr: 3 m/s z(e) 330°
Počasí: oblačno
Dohlednost: 11 km
Zákl. oblačnosti: 3/8 240 m
Vlhkost: 100%
Kuchařovice - Znojmo (Kucharovic) 27.02.2021 03:00 UTC Zobrazit data
Místo: Kuchařovice - Znojmo
Teplota: 3 °C (pocitová: -5 °C)
Vítr: 5 m/s z(e) 330°
Počasí: oblačno
Dohlednost: 21 km
Zákl. oblačnosti: 4/8 3300 m
Vlhkost: 87%
Liberec (Liberec) 27.02.2021 03:00 UTC Zobrazit data
Místo: Liberec
Teplota: 3 °C (pocitová: -3.3 °C)
Vítr: 3 m/s z(e) 320°
Počasí: zataženo
Dohlednost: 11 km
Zákl. oblačnosti: 8/8 210 m
Vlhkost: 93%
Luká (Luka) 27.02.2021 03:00 UTC Zobrazit data
Místo: Luká
Teplota: 2 °C (pocitová: -7.5 °C)
Vítr: 7 m/s z(e) 310°
Počasí: zataženo
Dohlednost: 9 km
Zákl. oblačnosti: 8/8 960 m
Vlhkost: 93%
Lysá Hora (Lysa Hora) 27.02.2021 03:00 UTC Zobrazit data
Místo: Lysá Hora
Teplota: -2 °C (pocitová: -13.8 °C)
Vítr: 8 m/s z(e) 350°
Počasí:
Dohlednost: N/A
Zákl. oblačnosti: N/A
Vlhkost: 100%
Milešovka (Milesovka) 27.02.2021 03:00 UTC Zobrazit data
Místo: Milešovka
Teplota: 0 °C (pocitová: -11 °C)
Vítr: 9 m/s z(e) 330°
Počasí: skoro zataženo
Dohlednost: 30 km
Zákl. oblačnosti: 6/8 90 m
Vlhkost: 100%
Mošnov (Ostrava/Mo) 27.02.2021 03:00 UTC Zobrazit data
Místo: Mošnov
Teplota: 3 °C (pocitová: -0.6 °C)
Vítr: 1 m/s z(e) 0°
Počasí: zataženo
Dohlednost: 15 km
Zákl. oblačnosti: 5/8 450 m;8/8 1290 m
Vlhkost: 93%
Náměšť nad Oslavou (Namest n/O) 27.02.2021 03:00 UTC Zobrazit data
Místo: Náměšť nad Oslavou
Teplota: 2 °C (pocitová: -6.9 °C)
Vítr: 6 m/s z(e) 330°
Počasí: zataženo
Dohlednost: 15 km
Zákl. oblačnosti: 5/8 300 m;8/8 3000 m
Vlhkost: 93%
Pardubice (Pardubice) 27.02.2021 03:00 UTC Zobrazit data
Místo: Pardubice
Teplota: 3 °C (pocitová: -4.3 °C)
Vítr: 4 m/s z(e) 280°
Počasí: skorojasno
Dohlednost: 10 km
Zákl. oblačnosti: 2/8 1380 m
Vlhkost: 93%
Pec pod Sněžkou (Pec p.Snez) 27.02.2021 03:00 UTC Zobrazit data
Místo: Pec pod Sněžkou
Teplota: 1 °C (pocitová: -4.6 °C)
Vítr: 2 m/s z(e) 0°
Počasí: skoro zataženo
Dohlednost: 35 km
Zákl. oblačnosti: 5/8 510 m
Vlhkost: 81%
Plzeň město - Mikulka (Plzen/Miku) 27.02.2021 03:00 UTC Zobrazit data
Místo: Plzeň město - Mikulka
Teplota: 0 °C (pocitová: -4.3 °C)
Vítr: 1 m/s z(e) 240°
Počasí: mlha
Dohlednost: 200 m
Zákl. oblačnosti: 6/8 90 m;8/8 1440 m
Vlhkost: 100%
Polom (Polom) 27.02.2021 03:00 UTC Zobrazit data
Místo: Polom
Teplota: 1 °C (pocitová: -6 °C)
Vítr: 3 m/s z(e) 350°
Počasí: zataženo
Dohlednost: 2000 m
Zákl. oblačnosti: 8/8 30 m
Vlhkost: 93%
Praha - Karlov (Praha/Kar) 27.02.2021 03:00 UTC Zobrazit data
Místo: Praha - Karlov
Teplota: 4 °C (pocitová: -0.8 °C)
Vítr: 2 m/s z(e) 290°
Počasí:
Dohlednost: 23 km
Zákl. oblačnosti: N/A
Vlhkost: 81%
Praha - Kbely (Praha/Kbe) 27.02.2021 03:00 UTC Zobrazit data
Místo: Praha - Kbely
Teplota: 3 °C (pocitová: -3.3 °C)
Vítr: 3 m/s z(e) 290°
Počasí: slunečno
Dohlednost: 10 km
Zákl. oblačnosti: N/A
Vlhkost: 93%
Praha - Libuš (Praha/Lib) 27.02.2021 03:00 UTC Zobrazit data
Místo: Praha - Libuš
Teplota: 2 °C (pocitová: -1.8 °C)
Vítr: 1 m/s z(e) 260°
Počasí: zataženo
Dohlednost: 9 km
Zákl. oblačnosti: N/A
Vlhkost: 93%
Praha - Ruzyně (Praha/Ru) 27.02.2021 03:00 UTC Zobrazit data
Místo: Praha - Ruzyně
Teplota: 2 °C (pocitová: -5.6 °C)
Vítr: 4 m/s z(e) 300°
Počasí: slunečno
Dohlednost: 20 km
Zákl. oblačnosti: N/A
Vlhkost: 93%
Přibyslav (Pribyslav) 27.02.2021 03:00 UTC Zobrazit data
Místo: Přibyslav
Teplota: 2 °C (pocitová: -6.9 °C)
Vítr: 6 m/s z(e) 330°
Počasí: zataženo
Dohlednost: 5 km
Zákl. oblačnosti: 8/8 120 m
Vlhkost: 100%
Přimda (Primda) 27.02.2021 03:00 UTC Zobrazit data
Místo: Přimda
Teplota: 0 °C (pocitová: -7.3 °C)
Vítr: 3 m/s z(e) 350°
Počasí: zataženo
Dohlednost: 9 km
Zákl. oblačnosti: 5/8 930 m
Vlhkost: 100%
Šerák (Serak) 27.02.2021 01:00 UTC Zobrazit data
Místo: Šerák
Teplota: -2 °C (pocitová: -12 °C)
Vítr: 5 m/s z(e) 360°
Počasí: déšť
Dohlednost: 100 m
Zákl. oblačnosti: 8/8 30 m
Vlhkost: 100%
Svratouch (Svratouch) 26.02.2021 18:00 UTC Zobrazit data
Místo: Svratouch
Teplota: 5 °C (pocitová: -1.5 °C)
Vítr: 4 m/s z(e) 340°
Počasí: zataženo
Dohlednost: 4200 m
Zákl. oblačnosti: 8/8 60 m
Vlhkost: 93%
Temelín (Temelin) 27.02.2021 03:00 UTC Zobrazit data
Místo: Temelín
Teplota: 1 °C (pocitová: -7.8 °C)
Vítr: 5 m/s z(e) 310°
Počasí: zataženo
Dohlednost: 6 km
Zákl. oblačnosti: 3/8 60 m
Vlhkost: 100%
Ústí nad Labem - Kočkov (Usti n/L) 27.02.2021 03:00 UTC Zobrazit data
Místo: Ústí nad Labem - Kočkov
Teplota: 3 °C (pocitová: -5 °C)
Vítr: 5 m/s z(e) 320°
Počasí: skoro zataženo
Dohlednost: 28 km
Zákl. oblačnosti: 7/8 420 m
Vlhkost: 87%
Ústí nad Orlicí (Usti n/O) 27.02.2021 03:00 UTC Zobrazit data
Místo: Ústí nad Orlicí
Teplota: 2 °C (pocitová: -5.6 °C)
Vítr: 4 m/s z(e) 290°
Počasí: zataženo
Dohlednost: 2600 m
Zákl. oblačnosti: 8/8 30 m
Vlhkost: 100%
Aalborg (EKYT) 26.02.2021 12:50 UTC Zobrazit METAR
EKYT 261250Z AUTO 29019KT 9999 FEW012/// 08/05 Q1024
Aarhus (EKAH) 26.02.2021 18:50 UTC Zobrazit METAR
EKAH 261850Z AUTO 29012KT 9999 FEW011/// 06/04 Q1028
Abu Dhabi (OMAA) 27.02.2021 03:00 UTC Zobrazit METAR
OMAA 270300Z 29007KT 9999 SCT030 19/13 Q1015 NOSIG
Abuja (DNAA) 27.02.2021 02:00 UTC Zobrazit METAR
DNAA 270200Z 08004KT 4000 HZ NSC 25/10 Q1010 NOSIG
Accra (DGAA) 27.02.2021 03:00 UTC Zobrazit METAR
DGAA 270300Z 26006KT 9999 FEW018 27/25 Q1001 NOSIG
Addis Abeba (HAAB) 27.02.2021 03:00 UTC Zobrazit METAR
HAAB 270300Z 07004KT 9999 SCT025 13/07 Q1024
Agana (PGUM) 27.02.2021 02:54 UTC Zobrazit METAR
PGUM 270254Z 10010KT 10SM FEW025 29/22 A2988 RMK AO2 SLP109 T02940217 58015
Ahe Island (NTHE) Zatím nenačteno  
Akureyri (BIAR) 27.02.2021 03:00 UTC Zobrazit METAR
BIAR 270300Z 19013KT 150V230 9999 -RA OVC044 05/00 Q0997
Almaty (UAAA) Zatím nenačteno  
Amman (OJAM) 27.02.2021 03:00 UTC Zobrazit METAR
OJAM 270300Z 00000KT CAVOK 07/03 Q1018 NOSIG
Amsterdam (EHAM) 26.02.2021 22:55 UTC Zobrazit METAR
EHAM 262255Z VRB01KT 8000 MIFG NSC 03/03 Q1038 BECMG 7000
Antananarivo (FMMI) 27.02.2021 03:00 UTC Zobrazit METAR
FMMI 270300Z 11005KT 090V150 9999 SCT017 BKN020 19/17 Q1015 NOSIG
1 2 3 ... 9 Další
Reklama

Reklama


Počasí na Váš email

Emaily jsou bez reklamy a bez spamu



Odhlásit newsletter


Další české internetové stránky (nejen) o počasí najdete v katalogu TOPlist - weby o počasí nebo vyhledejte na internetu, co jste tu na 🌞 Slunečnu ⛅ zatím nenašli:
⭐ Přidat Slunečno.cz do oblíbených | 🏠 Nastavit Slunečno.cz jako HOMEPAGE

⬆️ Posunout stránku nahoru ⬆️
Reklama